createdAt,value
2022-08-20T00:00:16.545Z,95301.38
2022-08-20T00:17:51.153Z,95300.44
2022-08-20T00:20:21.721Z,95303.75
2022-08-20T00:22:49.987Z,95293.91
2022-08-20T00:25:18.953Z,95298.22
2022-08-20T00:27:46.667Z,95293.22
2022-08-20T00:30:15.795Z,95296.16
2022-08-20T00:32:45.626Z,95294.19
2022-08-20T00:35:16.249Z,95304.06
2022-08-20T00:37:44.476Z,95301.13
2022-08-20T00:55:31.452Z,95314.94
2022-08-20T00:58:02.984Z,95315.22
2022-08-20T01:00:33.610Z,95311.25
2022-08-20T01:03:01.920Z,95319.66
2022-08-20T01:05:30.336Z,95319.31
2022-08-20T01:07:59.093Z,95323.59
2022-08-20T01:10:34.669Z,95319.13
2022-08-20T01:13:08.453Z,95319.78
2022-08-20T01:15:43.043Z,95322.06
2022-08-20T01:18:14.547Z,95323.25
2022-08-20T01:20:47.668Z,95325.22
2022-08-20T01:23:27.467Z,95325.22
2022-08-20T01:26:02.667Z,95317.00
2022-08-20T01:28:36.231Z,95325.03
2022-08-20T01:31:04.753Z,95320.59
2022-08-20T01:33:35.609Z,95327.84
2022-08-20T01:36:03.668Z,95321.13
2022-08-20T01:38:31.447Z,95322.25
2022-08-20T01:41:17.814Z,95321.44
2022-08-20T01:43:56.606Z,95319.44
2022-08-20T01:46:27.842Z,95325.59
2022-08-20T01:48:57.545Z,95324.25
2022-08-20T01:51:28.781Z,95325.16
2022-08-20T01:53:59.718Z,95328.25
2022-08-20T01:56:33.930Z,95328.72
2022-08-20T02:03:23.433Z,95329.06
2022-08-20T02:05:53.395Z,95323.34
2022-08-20T02:08:21.545Z,95321.88
2022-08-20T02:22:21.659Z,95341.66
2022-08-20T02:24:49.752Z,95333.59
2022-08-20T02:27:18.899Z,95344.63
2022-08-20T02:29:47.378Z,95344.13
2022-08-20T02:35:58.350Z,95341.53
2022-08-20T02:38:27.566Z,95347.75
2022-08-20T02:40:55.732Z,95343.50
2022-08-20T02:43:23.545Z,95336.78
2022-08-20T02:49:39.060Z,95344.31
2022-08-20T02:52:06.956Z,95342.66
2022-08-20T02:54:36.180Z,95350.72
2022-08-20T02:57:04.833Z,95339.38
2022-08-20T02:59:33.638Z,95350.03
2022-08-20T03:02:02.185Z,95337.75
2022-08-20T03:04:30.360Z,95349.38
2022-08-20T03:06:58.189Z,95347.25
2022-08-20T03:09:26.454Z,95341.16
2022-08-20T03:11:55.600Z,95342.00
2022-08-20T03:14:23.958Z,95349.25
2022-08-20T03:24:45.570Z,95349.44
2022-08-20T03:27:15.269Z,95359.13
2022-08-20T03:29:43.758Z,95361.59
2022-08-20T03:32:11.485Z,95354.84
2022-08-20T03:34:39.233Z,95350.03
2022-08-20T03:37:06.955Z,95359.56
2022-08-20T03:39:34.768Z,95361.53
2022-08-20T03:42:02.943Z,95362.06
2022-08-20T03:44:32.101Z,95357.91
2022-08-20T03:46:59.848Z,95366.44
2022-08-20T03:49:27.558Z,95370.41
2022-08-20T03:51:58.005Z,95365.16
2022-08-20T03:54:31.496Z,95375.97
2022-08-20T03:56:59.993Z,95378.63
2022-08-20T03:59:28.023Z,95376.97
2022-08-20T04:01:57.246Z,95378.63
2022-08-20T04:04:24.988Z,95373.72
2022-08-20T04:06:53.011Z,95369.44
2022-08-20T04:09:20.760Z,95376.03
2022-08-20T04:15:37.347Z,95373.72
2022-08-20T04:18:09.708Z,95377.81
2022-08-20T05:40:34.956Z,95446.69
2022-08-20T05:43:04.283Z,95431.75
2022-08-20T05:45:32.012Z,95434.69
2022-08-20T05:51:47.644Z,95445.16
2022-08-20T05:54:16.242Z,95449.41
2022-08-20T05:56:45.308Z,95444.16
2022-08-20T05:59:14.099Z,95449.44
2022-08-20T06:01:43.059Z,95449.28
2022-08-20T06:04:26.737Z,95456.16
2022-08-20T06:06:56.254Z,95445.97
2022-08-20T06:09:31.083Z,95449.41
2022-08-20T06:12:02.388Z,95450.72
2022-08-20T06:14:30.199Z,95442.50
2022-08-20T06:17:04.030Z,95459.44
2022-08-20T06:19:33.183Z,95460.09
2022-08-20T06:22:01.270Z,95461.22
2022-08-20T06:24:29.188Z,95458.78
2022-08-20T06:26:57.465Z,95468.97
2022-08-20T06:29:27.677Z,95467.69
2022-08-20T06:31:57.180Z,95462.25
2022-08-20T06:34:28.192Z,95468.47
2022-08-20T06:56:02.376Z,95474.03
2022-08-20T06:58:37.102Z,95472.50
2022-08-20T07:01:09.712Z,95478.59
2022-08-20T07:03:38.875Z,95474.63
2022-08-20T07:06:07.327Z,95484.31
2022-08-20T07:32:29.470Z,95502.19
2022-08-20T07:34:55.912Z,95495.59
2022-08-20T07:37:23.450Z,95500.16
2022-08-20T07:47:26.118Z,95507.75
2022-08-20T07:49:52.558Z,95513.84
2022-08-20T07:52:18.891Z,95515.19
2022-08-20T07:54:45.308Z,95518.78
2022-08-20T08:02:14.868Z,95515.75
2022-08-20T08:04:41.172Z,95512.03
2022-08-20T08:07:07.570Z,95515.81
2022-08-20T08:09:35.012Z,95511.69
2022-08-20T08:12:02.865Z,95515.34
2022-08-20T08:14:32.919Z,95513.97
2022-08-20T08:17:03.661Z,95516.91
2022-08-20T08:19:37.820Z,95519.66
2022-08-20T08:27:10.413Z,95523.31
2022-08-20T08:29:37.302Z,95521.16
2022-08-20T08:32:05.558Z,95529.56
2022-08-20T08:34:33.764Z,95521.66
2022-08-20T08:41:19.418Z,95536.81
2022-08-20T08:43:48.847Z,95544.47
2022-08-20T08:46:21.571Z,95539.06
2022-08-20T08:48:53.365Z,95541.00
2022-08-20T08:51:29.298Z,95546.97
2022-08-20T08:53:58.097Z,95546.06
2022-08-20T08:56:29.054Z,95542.47
2022-08-20T08:59:01.535Z,95549.38
2022-08-20T09:01:54.244Z,95549.69
2022-08-20T09:04:22.007Z,95553.97
2022-08-20T09:06:53.458Z,95548.34
2022-08-20T09:09:25.934Z,95553.97
2022-08-20T09:11:56.446Z,95548.13
2022-08-20T09:14:25.786Z,95551.91
2022-08-20T09:16:53.764Z,95546.47
2022-08-20T09:19:21.665Z,95552.38
2022-08-20T09:21:49.320Z,95556.84
2022-08-20T09:24:17.113Z,95555.66
2022-08-20T09:26:45.093Z,95556.13
2022-08-20T09:29:12.920Z,95548.88
2022-08-20T09:31:42.164Z,95552.50
2022-08-20T09:34:10.196Z,95554.13
2022-08-20T09:36:37.889Z,95553.50
2022-08-20T09:39:05.701Z,95552.50
2022-08-20T09:41:34.589Z,95553.81
2022-08-20T09:44:02.819Z,95549.28
2022-08-20T09:46:30.524Z,95547.38
2022-08-20T09:48:59.584Z,95547.19
2022-08-20T09:51:27.533Z,95541.66
2022-08-20T09:53:55.869Z,95547.75
2022-08-20T09:56:25.373Z,95544.25
2022-08-20T09:58:58.003Z,95546.00
2022-08-20T10:01:27.677Z,95542.56
2022-08-20T10:03:55.444Z,95544.53
2022-08-20T10:06:24.494Z,95551.81
2022-08-20T10:08:52.220Z,95538.69
2022-08-20T10:11:20.107Z,95548.06
2022-08-20T10:13:48.355Z,95533.75
2022-08-20T10:16:16.080Z,95539.38
2022-08-20T10:18:49.229Z,95544.41
2022-08-20T10:21:17.693Z,95540.84
2022-08-20T10:23:46.719Z,95538.38
2022-08-20T10:26:15.101Z,95543.00
2022-08-20T10:28:42.842Z,95529.84
2022-08-20T10:31:12.215Z,95541.34
2022-08-20T10:33:41.558Z,95542.00
2022-08-20T10:36:10.177Z,95544.59
2022-08-20T10:38:38.074Z,95544.41
2022-08-20T10:41:07.335Z,95540.16
2022-08-20T10:43:35.476Z,95540.69
2022-08-20T10:46:03.751Z,95537.03
2022-08-20T10:48:31.700Z,95531.63
2022-08-20T10:50:59.474Z,95544.41
2022-08-20T10:53:27.386Z,95543.44
2022-08-20T10:55:55.637Z,95532.72
2022-08-20T10:58:25.147Z,95548.34
2022-08-20T11:04:43.119Z,95535.25
2022-08-20T11:07:16.777Z,95535.41
2022-08-20T11:09:45.579Z,95535.59
2022-08-20T11:12:14.035Z,95526.69
2022-08-20T11:14:43.151Z,95527.06
2022-08-20T11:17:11.358Z,95539.81
2022-08-20T11:19:44.725Z,95533.25
2022-08-20T11:22:13.036Z,95517.41
2022-08-20T11:24:40.776Z,95517.22
2022-08-20T11:34:43.168Z,95522.47
2022-08-20T11:37:11.395Z,95515.59
2022-08-20T11:39:41.839Z,95516.50
2022-08-20T11:42:09.695Z,95516.22
2022-08-20T11:44:37.402Z,95518.06
2022-08-20T11:47:08.104Z,95511.06
2022-08-20T11:49:38.203Z,95505.97
2022-08-20T11:52:07.592Z,95513.25
2022-08-20T11:54:35.226Z,95517.72
2022-08-20T12:10:06.532Z,95521.53
2022-08-20T12:12:32.979Z,95521.63
2022-08-20T12:14:59.458Z,95521.72
2022-08-20T12:17:28.322Z,95529.28
2022-08-20T12:19:57.367Z,95528.53
2022-08-20T12:22:25.533Z,95513.31
2022-08-20T12:24:52.366Z,95525.97
2022-08-20T12:32:10.771Z,95522.09
2022-08-20T12:44:13.305Z,95507.22
2022-08-20T12:47:08.583Z,95500.13
2022-08-20T12:53:22.764Z,95498.13
2022-08-20T12:55:49.165Z,95501.13
2022-08-20T13:05:50.813Z,95513.03
2022-08-20T13:08:18.540Z,95504.22
2022-08-20T13:15:12.090Z,95509.13
2022-08-20T13:17:39.734Z,95501.66
2022-08-20T13:20:12.935Z,95505.66
2022-08-20T13:26:38.054Z,95501.41
2022-08-20T13:29:05.108Z,95503.84
2022-08-20T13:31:32.159Z,95504.47
2022-08-20T13:33:58.978Z,95501.28
2022-08-20T13:39:51.145Z,95497.09
2022-08-20T13:42:17.833Z,95486.19
2022-08-20T13:44:44.745Z,95480.50
2022-08-20T13:47:15.739Z,95483.25
2022-08-20T13:49:42.386Z,95472.84
2022-08-20T13:52:08.887Z,95473.41
2022-08-20T13:54:35.332Z,95471.41
2022-08-20T13:59:44.552Z,95473.03
2022-08-20T14:02:12.150Z,95474.56
2022-08-20T14:04:39.176Z,95473.94
2022-08-20T14:07:10.422Z,95462.75
2022-08-20T14:09:38.261Z,95471.84
2022-08-20T14:16:27.423Z,95476.72
2022-08-20T14:18:55.549Z,95465.63
2022-08-20T14:21:21.855Z,95469.06
2022-08-20T14:39:19.827Z,95491.03
2022-08-20T14:41:46.733Z,95502.16
2022-08-20T14:51:16.043Z,95503.41
2022-08-20T15:09:02.104Z,95559.88
2022-08-20T15:11:34.101Z,95584.63
2022-08-20T15:14:02.287Z,95582.03
2022-08-20T15:16:30.064Z,95563.06
2022-08-20T15:18:59.733Z,95537.28
2022-08-20T15:21:28.139Z,95564.66
2022-08-20T15:23:57.873Z,95578.38
2022-08-20T15:26:26.907Z,95582.84
2022-08-20T15:28:54.746Z,95589.44
2022-08-20T15:31:22.477Z,95586.41
2022-08-20T15:33:50.419Z,95581.22
2022-08-20T15:36:18.347Z,95575.84
2022-08-20T15:38:46.178Z,95586.47
2022-08-20T15:41:14.015Z,95577.72
2022-08-20T15:43:43.288Z,95566.78
2022-08-20T15:46:11.332Z,95567.31
2022-08-20T16:00:39.241Z,95552.56
2022-08-20T16:22:13.822Z,95547.28
2022-08-20T16:24:41.541Z,95557.84
2022-08-20T16:27:15.435Z,95547.25
2022-08-20T16:29:55.199Z,95553.47
2022-08-20T16:32:33.880Z,95555.13
2022-08-20T16:35:09.307Z,95557.13
2022-08-20T16:37:46.197Z,95564.84
2022-08-20T16:40:25.924Z,95557.25
2022-08-20T16:42:59.735Z,95564.78
2022-08-20T17:08:03.308Z,95580.22
2022-08-20T17:10:33.103Z,95581.31
2022-08-20T17:13:04.114Z,95575.72
2022-08-20T17:15:34.253Z,95580.47
2022-08-20T17:22:08.293Z,95587.22
2022-08-20T17:24:37.045Z,95598.13
2022-08-20T17:27:08.096Z,95596.59
2022-08-20T17:33:39.355Z,95592.22
2022-08-20T17:36:10.507Z,95585.47
2022-08-20T17:38:39.506Z,95590.22
2022-08-20T17:41:13.877Z,95589.66
2022-08-20T17:43:44.228Z,95584.06
2022-08-20T17:53:51.244Z,95587.91
2022-08-20T17:56:20.675Z,95590.66
2022-08-20T18:03:50.837Z,95592.44
2022-08-20T18:06:30.505Z,95594.69
2022-08-20T18:09:02.903Z,95590.84
2022-08-20T18:11:36.251Z,95589.69
2022-08-20T18:18:15.909Z,95583.09
2022-08-20T18:21:14.543Z,95585.91
2022-08-20T18:27:37.144Z,95591.66
2022-08-20T18:30:13.434Z,95596.78
2022-08-20T18:32:39.992Z,95599.69
2022-08-20T18:35:12.785Z,95599.56
2022-08-20T18:37:40.144Z,95597.91
2022-08-20T18:40:26.286Z,95588.75
2022-08-20T18:47:46.085Z,95596.22
2022-08-20T18:50:26.408Z,95595.81
2022-08-20T19:00:25.402Z,95599.31
2022-08-20T19:02:57.057Z,95605.47
2022-08-20T19:05:28.509Z,95605.13
2022-08-20T19:07:57.228Z,95612.34
2022-08-20T19:10:38.974Z,95611.19
2022-08-20T19:15:54.213Z,95621.28
2022-08-20T19:37:35.123Z,95605.09
2022-08-20T19:51:14.134Z,95606.38
2022-08-20T19:53:48.453Z,95603.75
2022-08-20T19:56:19.214Z,95598.91
2022-08-20T19:58:47.413Z,95593.72
2022-08-20T20:05:09.569Z,95596.41
2022-08-20T20:07:40.183Z,95592.91
2022-08-20T20:16:07.009Z,95593.47
2022-08-20T20:18:38.759Z,95594.78
2022-08-20T20:28:47.376Z,95573.44
2022-08-20T20:31:20.964Z,95583.19
2022-08-20T20:33:52.724Z,95581.34
2022-08-20T20:36:32.194Z,95585.59
2022-08-20T20:44:20.607Z,95585.91
2022-08-20T20:46:49.188Z,95578.97
2022-08-20T20:49:22.666Z,95577.88
2022-08-20T21:07:37.843Z,95580.19
2022-08-20T21:10:05.745Z,95572.78
2022-08-20T21:12:32.132Z,95573.13
2022-08-20T21:14:58.599Z,95571.63
2022-08-20T21:34:02.655Z,95578.72
2022-08-20T21:36:29.252Z,95581.00
2022-08-20T21:38:55.594Z,95583.00
2022-08-20T21:41:29.421Z,95587.13
2022-08-20T21:43:58.797Z,95589.94
2022-08-20T21:46:27.910Z,95586.97
2022-08-20T21:48:54.423Z,95576.25
2022-08-20T22:05:38.907Z,95582.19
2022-08-20T22:08:05.333Z,95581.66
2022-08-20T22:10:31.844Z,95580.69
2022-08-20T22:12:58.390Z,95574.50
2022-08-20T22:19:16.262Z,95572.19
2022-08-20T22:21:44.038Z,95575.47
2022-08-20T22:29:15.075Z,95571.00
2022-08-20T22:31:42.772Z,95570.34
2022-08-20T22:34:10.935Z,95568.69
2022-08-20T22:36:37.723Z,95566.88
2022-08-20T22:39:04.931Z,95563.28
2022-08-20T22:41:31.562Z,95558.28
2022-08-20T22:47:43.080Z,95568.69
2022-08-20T23:01:29.755Z,95558.84
2022-08-20T23:04:08.072Z,95562.31
2022-08-20T23:06:35.846Z,95559.34
2022-08-20T23:09:03.601Z,95557.66
2022-08-20T23:11:31.851Z,95559.47
2022-08-20T23:13:59.869Z,95556.84
2022-08-20T23:16:28.994Z,95563.28
2022-08-20T23:18:56.861Z,95557.38
2022-08-20T23:25:12.935Z,95549.06
2022-08-20T23:27:44.678Z,95544.91
2022-08-20T23:30:13.207Z,95549.00
2022-08-20T23:32:42.784Z,95549.66
2022-08-20T23:35:12.089Z,95542.72
2022-08-20T23:37:44.231Z,95543.06
2022-08-20T23:40:33.994Z,95542.28
2022-08-20T23:43:02.114Z,95542.59
2022-08-20T23:45:30.703Z,95537.88
2022-08-20T23:48:00.096Z,95534.22
2022-08-20T23:50:30.876Z,95536.19
2022-08-20T23:52:59.561Z,95527.63
2022-08-20T23:55:27.791Z,95532.06
2022-08-20T23:57:55.526Z,95526.94
